Penola, South Australia

12:15 AM ACST on May 27, 2015 (GMT +0930)
Coonawarra | | Change Station
CLOSE
Current Station
Personal Weather Station
Location: Coonawarra, SOUTH AUSTRALIA
Elevation: 207 ft
Nearby Weather Stations

Elev 207 ft 37.35 °S, 140.85 °E | Updated 3 minutes ago

Scattered Clouds
Scattered Clouds
57.8 °F
Feels Like 57.8 °F
N
0.0
Wind Variable Wind from North

Today
High -- | Low -- °F
--% Chance of Precip.
Yesterday
High -- | Low -- °F
Precip. -- in
7:08 AM 4:59 PM
First Quarter, 58% visible
Pressure 30.09 in
Visibility 5.0 miles
Clouds Scattered Clouds 3600 ft
Scattered Clouds 5000 ft
Scattered Clouds 6100 ft
Dew Point 50 °F
Humidity 76%
Rainfall 0.00 in
Snow Depth Not available.
UV 0 out of 12
Pollen Not available.
Air Quality Not available.
Flu Activity Not available.
METAR YMTG 261400Z AUTO 36009KT 8000 // SCT036 SCT050 SCT061 12/11 Q1019

More Conditions Fewer Conditions

Pressure 30.09 in
Visibility 5.0 miles
Clouds Scattered Clouds 3600 ft
Scattered Clouds 5000 ft
Scattered Clouds 6100 ft
Dew Point 50 °F
Humidity 76%
Rainfall 0.00 in
Snow Depth Not available.
UV 0 out of 12
Pollen Not available.
Air Quality Not available.
Flu Activity Not available.
METAR YMTG 261400Z AUTO 36009KT 8000 // SCT036 SCT050 SCT061 12/11 Q1019

More Conditions Fewer Conditions

10-Day Weather Forecast

Almanac

Astronomy

May. 27, 2015 Rise Set
Actual Time
Civil Twilight
Nautical Twilight
Astronomical Twilight
Moon
Length of Visible Light
Length of Day
Tomorrow will be .
, % of the Moon is Illuminated

Today's Extremes

Country Highs Country Lows

Community

WunderPhotos

Upload Photos

1,824,344 photos uploaded!

WunderBlogs® & News

Nearby

Air Quality

  Air Quality AQ Index Pollutant
Not available.

Snow Depth

Station Depth Elevation

Earthquake Activity

City Distance Mag. Time & Date
Minimum magnitude displayed is 2.5.

Coastal Water Temperatures

Place Temperature

Stations

Nearby Weather Stations

Station Location Temp. Windchill Dew Point Humidity Wind Precip. Elev Updated Type